Time;durP1;ratioP1;P1;durP2;ratioP2;P2;SDS_P1;SDS_P2;PMS_P1;PMS_P2;Temp;Humidity;BMP_temperature;BMP_pressure;BME280_temperature;BME280_humidity;BME280_pressure;Samples;Min_cycle;Max_cycle;Signal;HPM_P1;HPM_P2
2022/04/18 00:00:51;;;;;;;1.65;1.20;;;4.90;90.00;;;;;;5069545;28;20529;-77
2022/04/18 00:03:17;;;;;;;1.30;0.93;;;4.80;90.40;;;;;;5084638;28;20037;-76
2022/04/18 00:05:43;;;;;;;1.33;1.00;;;4.70;90.80;;;;;;5070736;28;20033;-77
2022/04/18 00:08:10;;;;;;;2.60;1.10;;;4.70;92.20;;;;;;5069408;28;20028;-77
2022/04/18 00:10:36;;;;;;;1.38;1.00;;;4.70;93.30;;;;;;5065989;28;20041;-77
2022/04/18 00:13:02;;;;;;;2.42;0.90;;;4.60;93.80;;;;;;5068523;28;20091;-77
2022/04/18 00:15:28;;;;;;;1.80;1.02;;;4.50;94.10;;;;;;5071340;28;20371;-77
2022/04/18 00:17:55;;;;;;;1.27;0.82;;;4.40;94.30;;;;;;5068426;28;20474;-77
2022/04/18 00:20:21;;;;;;;2.20;0.93;;;4.30;94.80;;;;;;5070757;28;20039;-77
2022/04/18 00:22:47;;;;;;;1.33;1.05;;;4.20;94.90;;;;;;5067672;28;20035;-77
2022/04/18 00:25:13;;;;;;;1.75;1.05;;;4.20;95.20;;;;;;5081516;28;20076;-77
2022/04/18 00:27:40;;;;;;;1.83;0.77;;;4.20;94.70;;;;;;5067298;28;20029;-76
2022/04/18 00:30:06;;;;;;;1.00;0.90;;;4.30;94.40;;;;;;5070858;28;20032;-77
2022/04/18 00:32:34;;;;;;;1.17;1.05;;;4.30;94.00;;;;;;5068936;28;20028;-77
2022/04/18 00:35:02;;;;;;;0.90;0.85;;;4.30;94.00;;;;;;5069624;28;20036;-77
2022/04/18 00:37:28;;;;;;;1.60;1.02;;;4.30;93.50;;;;;;5066949;28;20051;-77
2022/04/18 00:39:54;;;;;;;1.10;1.00;;;4.30;93.40;;;;;;5084841;28;20045;-76
2022/04/18 00:42:21;;;;;;;1.05;0.82;;;4.20;93.80;;;;;;5068801;28;20063;-77
2022/04/18 00:44:47;;;;;;;1.95;1.00;;;4.30;94.30;;;;;;5068342;28;20040;-77
2022/04/18 00:47:13;;;;;;;3.88;1.38;;;4.20;94.90;;;;;;5070279;28;20115;-77
2022/04/18 00:49:40;;;;;;;1.70;1.23;;;4.10;95.30;;;;;;5078961;28;20063;-76
2022/04/18 00:52:07;;;;;;;1.67;1.02;;;4.10;95.50;;;;;;5070845;28;20146;-76
2022/04/18 00:54:33;;;;;;;1.23;1.10;;;4.10;95.40;;;;;;5086083;28;20048;-79
2022/04/18 00:57:01;;;;;;;1.13;1.00;;;4.10;95.50;;;;;;5084112;28;20045;-77
2022/04/18 00:59:31;;;;;;;2.33;1.35;;;4.10;95.40;;;;;;5083983;28;20059;-77
2022/04/18 01:01:58;;;;;;;1.65;1.05;;;4.10;95.20;;;;;;5068553;28;20036;-77
2022/04/18 01:04:24;;;;;;;0.90;0.70;;;4.00;95.10;;;;;;5083011;28;20041;-77
2022/04/18 01:06:51;;;;;;;1.40;1.00;;;4.00;95.00;;;;;;5072206;28;20032;-77
2022/04/18 01:09:18;;;;;;;2.08;1.30;;;4.10;94.90;;;;;;5081981;28;20040;-77
2022/04/18 01:11:44;;;;;;;3.15;1.13;;;4.00;94.90;;;;;;5073388;28;20033;-77
2022/04/18 01:14:25;;;;;;;2.22;0.95;;;4.00;95.20;;;;;;5095343;28;20401;-77
2022/04/18 01:16:57;;;;;;;2.45;1.38;;;3.90;95.50;;;;;;5068815;28;20068;-77
2022/04/18 01:19:42;;;;;;;1.63;0.90;;;3.90;94.40;;;;;;5069171;28;20045;-77
2022/04/18 01:22:26;;;;;;;2.10;1.13;;;3.90;93.90;;;;;;5071551;28;20045;-78
2022/04/18 01:30:33;;;;;;;2.05;1.20;;;4.10;94.30;;;;;;5089281;28;20041;-79
2022/04/18 01:33:00;;;;;;;1.92;1.27;;;4.20;93.80;;;;;;5087039;28;20055;-78
2022/04/18 01:35:26;;;;;;;3.17;1.02;;;4.20;93.60;;;;;;5083909;28;20040;-77
2022/04/18 01:37:53;;;;;;;1.10;0.95;;;4.20;92.90;;;;;;5072082;28;20040;-78
2022/04/18 01:40:19;;;;;;;2.08;1.30;;;4.20;92.00;;;;;;5073392;28;20029;-77
2022/04/18 01:42:45;;;;;;;0.95;0.68;;;4.40;90.50;;;;;;5072710;28;20029;-77
2022/04/18 01:45:14;;;;;;;2.35;0.80;;;4.60;90.20;;;;;;5072611;28;20041;-78
2022/04/18 01:47:43;;;;;;;1.13;0.85;;;4.60;90.40;;;;;;5084671;28;20040;-78
2022/04/18 01:50:10;;;;;;;3.88;1.38;;;4.50;90.60;;;;;;5072282;28;20041;-78
2022/04/18 01:52:36;;;;;;;1.20;1.10;;;4.50;90.10;;;;;;5070946;28;20040;-78
2022/04/18 01:55:04;;;;;;;3.72;1.20;;;4.50;89.40;;;;;;5083566;28;20150;-78
2022/04/18 01:57:30;;;;;;;2.53;1.30;;;4.90;86.50;;;;;;5076597;28;20048;-78
2022/04/18 01:59:56;;;;;;;1.20;0.95;;;5.30;84.40;;;;;;5089050;28;20051;-77
2022/04/18 02:02:23;;;;;;;1.42;1.10;;;5.50;84.30;;;;;;5071654;28;20049;-77
2022/04/18 02:04:49;;;;;;;1.80;1.05;;;5.40;85.70;;;;;;5078929;28;20048;-77
2022/04/18 02:07:15;;;;;;;1.27;1.02;;;5.10;88.80;;;;;;5077964;28;20020;-78
2022/04/18 02:09:47;;;;;;;1.27;1.17;;;4.90;90.40;;;;;;5093400;28;20044;-77
2022/04/18 02:12:13;;;;;;;1.85;1.20;;;4.70;90.80;;;;;;5052028;28;20044;-77
2022/04/18 02:15:00;;;;;;;1.50;1.05;;;4.50;91.40;;;;;;5070207;28;20071;-77
2022/04/18 02:17:29;;;;;;;1.50;1.13;;;4.40;92.00;;;;;;5072206;28;20048;-78
2022/04/18 02:19:56;;;;;;;2.15;1.45;;;4.30;92.00;;;;;;5067864;28;20036;-77
2022/04/18 02:22:23;;;;;;;1.65;1.02;;;4.30;91.50;;;;;;5072292;28;20024;-77
2022/04/18 02:24:49;;;;;;;0.90;0.73;;;4.40;92.70;;;;;;5072514;28;20025;-78
2022/04/18 02:27:16;;;;;;;2.13;1.10;;;4.50;89.80;;;;;;5072270;28;20389;-78
2022/04/18 02:29:45;;;;;;;2.60;1.48;;;4.90;87.10;;;;;;5052969;28;20045;-78
2022/04/18 02:34:56;;;;;;;2.60;1.27;;;4.90;87.40;;;;;;5082824;28;20403;-77
2022/04/18 02:37:23;;;;;;;1.38;1.20;;;4.80;90.00;;;;;;5053621;28;20056;-77
2022/04/18 02:39:49;;;;;;;1.23;1.02;;;4.70;90.50;;;;;;5069468;28;20338;-77
2022/04/18 02:42:18;;;;;;;1.80;1.42;;;4.50;91.00;;;;;;5068138;28;20033;-77
2022/04/18 02:44:46;;;;;;;3.13;1.20;;;4.30;91.40;;;;;;5069510;28;20044;-77
2022/04/18 02:47:14;;;;;;;1.02;0.90;;;4.20;92.00;;;;;;5070965;28;20044;-77
2022/04/18 02:49:41;;;;;;;2.53;1.30;;;4.10;92.90;;;;;;5070675;28;20040;-77
2022/04/18 02:52:09;;;;;;;3.42;1.73;;;3.90;93.70;;;;;;5053611;28;20389;-77
2022/04/18 02:54:35;;;;;;;1.90;1.40;;;3.90;94.00;;;;;;5071179;28;20044;-77
2022/04/18 02:57:02;;;;;;;5.53;1.67;;;3.80;94.40;;;;;;5069866;28;20259;-77
2022/04/18 02:59:28;;;;;;;1.73;0.95;;;3.70;95.00;;;;;;5053256;28;20033;-77
2022/04/18 03:01:55;;;;;;;1.10;0.82;;;3.60;95.50;;;;;;5054769;28;20044;-77
2022/04/18 03:04:21;;;;;;;1.30;1.00;;;3.60;96.00;;;;;;5068133;28;20044;-78
2022/04/18 03:06:47;;;;;;;2.17;1.50;;;3.50;96.40;;;;;;5068556;28;20041;-78
2022/04/18 03:09:15;;;;;;;3.05;1.23;;;3.50;96.80;;;;;;5067493;28;20389;-77
2022/04/18 03:11:41;;;;;;;1.65;1.08;;;3.50;97.50;;;;;;5085642;28;20385;-78
2022/04/18 03:14:07;;;;;;;5.20;1.58;;;3.40;97.70;;;;;;5069752;28;20040;-77
2022/04/18 03:16:42;;;;;;;1.83;1.23;;;3.30;98.30;;;;;;5065749;28;20044;-77
2022/04/18 03:19:08;;;;;;;5.55;1.90;;;3.30;99.10;;;;;;5081134;28;20041;-77
2022/04/18 03:21:42;;;;;;;4.13;1.95;;;3.20;99.00;;;;;;5084845;28;20048;-77
2022/04/18 03:24:10;;;;;;;1.90;1.42;;;3.20;98.70;;;;;;5070683;28;20051;-77
2022/04/18 03:26:41;;;;;;;1.23;1.13;;;3.10;98.90;;;;;;5076569;28;20040;-77
2022/04/18 03:29:19;;;;;;;1.98;1.42;;;3.00;98.80;;;;;;5055007;28;20483;-77
2022/04/18 03:31:45;;;;;;;2.42;1.40;;;3.00;98.80;;;;;;5063870;28;20036;-77
2022/04/18 03:34:14;;;;;;;2.53;1.42;;;2.90;99.90;;;;;;5070532;28;20044;-77
2022/04/18 03:42:11;;;;;;;2.95;1.90;;;2.80;99.90;;;;;;5069665;28;20033;-77
2022/04/18 03:44:44;;;;;;;1.83;1.35;;;2.80;99.90;;;;;;5071457;28;20466;-77
2022/04/18 03:47:11;;;;;;;2.28;1.80;;;2.80;99.90;;;;;;5070873;28;20036;-77
2022/04/18 03:49:39;;;;;;;2.35;1.83;;;2.80;99.90;;;;;;5069957;28;20029;-77
2022/04/18 03:52:07;;;;;;;2.83;1.75;;;2.70;99.90;;;;;;5068968;28;20045;-76
2022/04/18 03:54:36;;;;;;;2.20;1.38;;;2.70;99.90;;;;;;5082431;28;20053;-78
2022/04/18 03:57:05;;;;;;;2.78;1.58;;;2.60;99.90;;;;;;5083145;28;20501;-77
2022/04/18 03:59:47;;;;;;;2.65;1.60;;;2.60;99.90;;;;;;5068790;28;20390;-76
2022/04/18 04:02:15;;;;;;;1.85;1.30;;;2.50;99.90;;;;;;5083200;28;20036;-77
2022/04/18 04:04:50;;;;;;;2.05;1.40;;;2.50;99.90;;;;;;5080811;28;20033;-77
2022/04/18 04:07:17;;;;;;;2.20;1.27;;;2.60;99.90;;;;;;5070905;28;20044;-77
2022/04/18 04:09:45;;;;;;;4.65;1.83;;;2.50;99.90;;;;;;5082265;28;20473;-77
2022/04/18 04:12:21;;;;;;;2.67;1.67;;;2.40;99.90;;;;;;5085169;28;20040;-78
2022/04/18 04:14:58;;;;;;;2.88;1.80;;;2.30;99.90;;;;;;5086053;28;20503;-77
2022/04/18 04:17:26;;;;;;;1.80;1.45;;;2.10;99.90;;;;;;5053834;28;20048;-78
2022/04/18 04:19:57;;;;;;;2.25;1.75;;;2.00;99.90;;;;;;5086524;28;20037;-78
2022/04/18 04:22:30;;;;;;;3.05;1.67;;;2.00;99.90;;;;;;5085998;28;20473;-77
2022/04/18 04:25:08;;;;;;;3.50;2.17;;;2.10;99.90;;;;;;5070901;28;20048;-77
2022/04/18 04:27:34;;;;;;;1.85;1.50;;;2.20;99.90;;;;;;5076930;28;20509;-78
2022/04/18 04:30:02;;;;;;;2.15;1.60;;;2.10;99.90;;;;;;5077869;28;20036;-77
2022/04/18 04:32:40;;;;;;;4.18;1.67;;;2.00;99.90;;;;;;5083648;28;20067;-77
2022/04/18 04:35:07;;;;;;;2.00;1.63;;;2.00;99.90;;;;;;5080311;28;20413;-77
2022/04/18 04:37:44;;;;;;;1.67;1.52;;;2.00;99.90;;;;;;5067828;28;20052;-77
2022/04/18 04:40:37;;;;;;;5.05;1.98;;;2.10;99.90;;;;;;5074669;28;20041;-78
2022/04/18 04:43:06;;;;;;;2.00;1.42;;;2.10;99.90;;;;;;5072021;28;20071;-78
2022/04/18 04:45:36;;;;;;;3.95;1.73;;;2.10;99.90;;;;;;5074224;28;20044;-79
2022/04/18 04:48:24;;;;;;;4.28;2.28;;;2.00;99.90;;;;;;5071900;28;20528;-77
2022/04/18 04:50:55;;;;;;;4.28;1.45;;;2.00;99.90;;;;;;5083885;28;20041;-78
2022/04/18 04:53:21;;;;;;;1.80;1.23;;;2.00;99.90;;;;;;5089264;28;20041;-77
2022/04/18 04:55:48;;;;;;;2.30;1.55;;;2.00;99.90;;;;;;5073982;28;20044;-78
2022/04/18 04:58:15;;;;;;;2.05;1.67;;;2.00;99.90;;;;;;5087921;28;20052;-79
2022/04/18 05:01:00;;;;;;;3.85;1.77;;;2.00;99.90;;;;;;5080083;28;20036;-78
2022/04/18 05:04:05;;;;;;;2.25;1.85;;;2.10;99.90;;;;;;5066298;28;20389;-77
2022/04/18 05:06:33;;;;;;;2.83;1.83;;;2.00;99.90;;;;;;5073767;28;20055;-78
2022/04/18 05:09:02;;;;;;;2.67;1.85;;;2.20;99.90;;;;;;5071840;28;20401;-78
2022/04/18 05:11:31;;;;;;;2.03;1.73;;;2.70;99.90;;;;;;5069500;28;20037;-79
2022/04/18 05:13:58;;;;;;;5.32;2.17;;;4.20;99.90;;;;;;5083489;28;20055;-79
2022/04/18 05:16:56;;;;;;;1.63;1.52;;;5.50;94.60;;;;;;5066703;28;20056;-80
2022/04/18 05:19:31;;;;;;;1.75;1.48;;;6.60;91.00;;;;;;5067410;28;20040;-80
2022/04/18 05:22:17;;;;;;;2.22;1.50;;;7.30;87.50;;;;;;5071320;28;20397;-80
2022/04/18 05:24:45;;;;;;;2.08;1.80;;;8.00;83.10;;;;;;5089973;28;20040;-80
2022/04/18 05:27:15;;;;;;;2.05;1.60;;;8.50;79.00;;;;;;5084178;28;20052;-80
2022/04/18 05:29:43;;;;;;;2.90;1.67;;;9.00;76.20;;;;;;5081622;28;20041;-80
2022/04/18 05:32:11;;;;;;;1.77;1.15;;;9.50;73.60;;;;;;5072884;28;20041;-80
2022/04/18 05:34:44;;;;;;;1.58;1.25;;;10.30;71.10;;;;;;5073220;28;20044;-80
2022/04/18 05:37:22;;;;;;;2.22;1.83;;;9.90;70.30;;;;;;5083300;28;20052;-80
2022/04/18 05:40:02;;;;;;;4.27;1.20;;;8.90;73.40;;;;;;5084707;28;20040;-80
2022/04/18 05:42:33;;;;;;;;;;;8.80;75.10;;;;;;5083146;28;20290;-80
2022/04/18 05:45:08;;;;;;;2.17;1.80;;;8.80;75.70;;;;;;5068460;28;19912;-78
2022/04/18 05:47:35;;;;;;;3.00;2.03;;;9.20;74.80;;;;;;5087947;28;20044;-78
2022/04/18 05:50:06;;;;;;;5.32;2.30;;;10.40;71.10;;;;;;5070375;28;20386;-78
2022/04/18 05:52:35;;;;;;;1.90;1.58;;;11.40;67.00;;;;;;5071839;28;20043;-78
2022/04/18 05:55:22;;;;;;;2.25;1.63;;;11.40;64.60;;;;;;5069073;28;20417;-78
2022/04/18 05:57:52;;;;;;;1.83;1.30;;;11.20;64.30;;;;;;5085990;28;20057;-79
2022/04/18 06:00:19;;;;;;;2.78;1.50;;;11.10;64.00;;;;;;5071028;28;20048;-80
2022/04/18 06:02:55;;;;;;;2.90;1.77;;;10.70;65.10;;;;;;5067147;28;20041;-78
2022/04/18 06:05:21;;;;;;;2.92;1.90;;;10.90;65.00;;;;;;5073868;28;20035;-78
2022/04/18 06:07:57;;;;;;;4.05;2.10;;;11.70;62.40;;;;;;5072510;28;20048;-78
2022/04/18 06:10:41;;;;;;;4.00;1.65;;;12.40;60.00;;;;;;5077702;28;20040;-78
2022/04/18 06:13:29;;;;;;;3.10;1.58;;;13.10;57.60;;;;;;5085558;28;20048;-78
2022/04/18 06:15:56;;;;;;;2.88;1.80;;;14.10;55.60;;;;;;5071244;28;20044;-78
2022/04/18 06:18:24;;;;;;;2.38;1.75;;;14.60;54.20;;;;;;5084181;28;20413;-78
2022/04/18 06:20:51;;;;;;;3.28;1.83;;;14.40;53.60;;;;;;5070023;28;20040;-78
2022/04/18 06:23:17;;;;;;;3.13;2.00;;;13.90;54.80;;;;;;5089032;28;20044;-78
2022/04/18 06:25:48;;;;;;;5.85;2.55;;;13.50;55.20;;;;;;5082463;28;20040;-79
2022/04/18 06:28:15;;;;;;;2.13;1.83;;;13.80;54.70;;;;;;5083076;28;20048;-79
2022/04/18 06:30:45;;;;;;;3.45;1.98;;;14.00;54.20;;;;;;5071548;28;20041;-79
2022/04/18 06:33:32;;;;;;;5.82;2.25;;;14.30;52.90;;;;;;5069247;28;20029;-78
2022/04/18 06:36:01;;;;;;;1.92;1.63;;;15.00;51.20;;;;;;5071443;28;20047;-77
2022/04/18 06:38:29;;;;;;;2.50;1.83;;;15.30;49.90;;;;;;5079117;28;20048;-78
2022/04/18 06:41:02;;;;;;;1.67;1.58;;;15.70;49.70;;;;;;5086784;28;20041;-78
2022/04/18 06:43:30;;;;;;;6.05;2.63;;;16.20;48.50;;;;;;5085361;28;20040;-78
2022/04/18 06:45:57;;;;;;;1.92;1.63;;;16.60;47.00;;;;;;5082301;28;20037;-78
2022/04/18 06:48:25;;;;;;;2.45;1.90;;;16.00;47.60;;;;;;5069848;28;20044;-78
2022/04/18 06:51:27;;;;;;;2.83;1.70;;;15.60;47.60;;;;;;5061566;28;20044;-78
2022/04/18 06:54:22;;;;;;;5.20;1.92;;;16.20;48.20;;;;;;5025435;28;20128;-78
2022/04/18 06:56:59;;;;;;;4.80;2.25;;;16.70;45.40;;;;;;5086606;28;20043;-78
2022/04/18 06:59:34;;;;;;;2.40;1.55;;;16.80;46.10;;;;;;5068969;28;20052;-77
2022/04/18 07:02:01;;;;;;;2.55;1.80;;;16.10;46.70;;;;;;5085649;28;20041;-77
2022/04/18 07:04:28;;;;;;;3.83;1.95;;;15.30;48.00;;;;;;5084785;28;20132;-78
2022/04/18 07:06:55;;;;;;;3.33;2.17;;;14.70;48.60;;;;;;5079087;28;20040;-78
2022/04/18 07:09:22;;;;;;;4.85;2.33;;;14.90;48.70;;;;;;5051785;28;20045;-78
2022/04/18 07:11:52;;;;;;;2.65;1.75;;;15.00;48.70;;;;;;5069765;28;20028;-78
2022/04/18 07:14:22;;;;;;;2.23;2.03;;;14.50;47.90;;;;;;5072678;28;20450;-78
2022/04/18 07:16:53;;;;;;;3.22;2.45;;;14.30;48.20;;;;;;5067949;28;20123;-78
2022/04/18 07:19:23;;;;;;;4.18;1.85;;;14.10;49.50;;;;;;5083007;28;20057;-78
2022/04/18 07:21:51;;;;;;;3.10;1.92;;;15.90;47.80;;;;;;5085487;28;20048;-78
2022/04/18 07:24:18;;;;;;;2.55;2.10;;;17.30;45.90;;;;;;5067364;28;20041;-77
2022/04/18 07:26:51;;;;;;;2.45;1.85;;;18.40;44.30;;;;;;5091233;28;20040;-78
2022/04/18 07:29:17;;;;;;;3.05;1.88;;;18.00;43.90;;;;;;5072041;28;20035;-78
2022/04/18 07:31:44;;;;;;;2.80;1.80;;;16.60;45.10;;;;;;5071598;28;20029;-78
2022/04/18 07:34:10;;;;;;;3.28;2.10;;;16.80;44.80;;;;;;5071141;28;20485;-79
2022/04/18 07:36:37;;;;;;;3.58;2.30;;;17.40;44.40;;;;;;5072099;28;20044;-78
2022/04/18 07:39:03;;;;;;;4.97;2.20;;;17.60;44.30;;;;;;5080820;28;20052;-79
2022/04/18 07:41:40;;;;;;;2.83;2.15;;;18.50;43.40;;;;;;5070834;28;20040;-79
2022/04/18 07:44:06;;;;;;;2.25;1.75;;;18.20;44.00;;;;;;5085170;28;20111;-79
2022/04/18 07:46:34;;;;;;;5.25;1.85;;;17.90;44.00;;;;;;5082011;28;20056;-79
2022/04/18 07:49:03;;;;;;;7.83;2.27;;;17.30;44.80;;;;;;5068724;28;20040;-79
2022/04/18 07:51:36;;;;;;;;;;;16.60;45.40;;;;;;5082137;28;20771;-78
2022/04/18 07:54:14;;;;;;;4.70;2.05;;;17.70;45.30;;;;;;5070573;28;19915;-78
2022/04/18 07:56:43;;;;;;;2.75;1.70;;;17.50;44.40;;;;;;5081838;28;20040;-78
2022/04/18 07:59:10;;;;;;;2.72;1.90;;;16.90;46.50;;;;;;5083887;28;20402;-78
2022/04/18 08:01:39;;;;;;;2.57;2.07;;;17.50;44.60;;;;;;5051348;28;20051;-78
2022/04/18 08:04:07;;;;;;;4.75;2.13;;;17.80;45.30;;;;;;5064965;28;20298;-79
2022/04/18 08:06:36;;;;;;;4.22;2.03;;;18.00;44.40;;;;;;5082306;28;20036;-79
2022/04/18 08:09:23;;;;;;;4.22;2.17;;;18.70;43.40;;;;;;5085389;28;20051;-78
2022/04/18 08:11:50;;;;;;;3.58;2.60;;;19.80;41.30;;;;;;5082268;28;20040;-79
2022/04/18 08:14:23;;;;;;;2.78;2.08;;;20.80;39.40;;;;;;5070989;28;20404;-79
2022/04/18 08:16:53;;;;;;;4.05;2.28;;;20.40;40.40;;;;;;5082001;28;20049;-79
2022/04/18 08:19:33;;;;;;;5.10;2.33;;;19.30;41.00;;;;;;5084577;28;20048;-79
2022/04/18 08:21:59;;;;;;;3.80;2.50;;;19.90;41.70;;;;;;5074988;28;20036;-79
2022/04/18 08:24:27;;;;;;;6.30;2.35;;;19.60;41.80;;;;;;5089524;28;20354;-79
2022/04/18 08:27:11;;;;;;;2.40;1.77;;;19.20;43.70;;;;;;5070846;28;20029;-79
2022/04/18 08:29:50;;;;;;;3.17;2.40;;;20.30;42.10;;;;;;5080127;28;20045;-78
2022/04/18 08:32:20;;;;;;;2.33;2.13;;;18.20;42.60;;;;;;5087407;28;20052;-78
2022/04/18 08:34:46;;;;;;;2.45;2.13;;;17.60;44.00;;;;;;5052576;28;20071;-78
2022/04/18 08:37:18;;;;;;;3.05;1.95;;;18.30;42.60;;;;;;5087318;28;20036;-79
2022/04/18 08:40:05;;;;;;;2.60;1.75;;;18.90;43.10;;;;;;5058322;28;20040;-79
2022/04/18 08:42:33;;;;;;;;;;;18.00;42.70;;;;;;5065099;28;20044;-79
2022/04/18 08:45:02;;;;;;;3.88;1.95;;;18.10;43.20;;;;;;5064896;28;19908;-78
2022/04/18 08:53:06;;;;;;;3.72;2.75;;;15.60;42.70;;;;;;5067285;28;20052;-80
2022/04/18 08:55:34;;;;;;;1.90;1.73;;;15.60;45.20;;;;;;5070403;28;20493;-80
2022/04/18 08:58:14;;;;;;;3.28;1.85;;;18.10;41.30;;;;;;5086706;28;20045;-80
2022/04/18 09:00:42;;;;;;;2.30;1.77;;;19.00;39.90;;;;;;5067549;28;20482;-80
2022/04/18 09:03:31;;;;;;;4.68;1.92;;;18.00;42.40;;;;;;5070793;28;20414;-80
2022/04/18 09:06:17;;;;;;;3.50;2.45;;;17.00;43.70;;;;;;5086114;28;20029;-80
2022/04/18 09:08:57;;;;;;;3.08;2.25;;;16.80;43.00;;;;;;5067863;28;20041;-76
2022/04/18 09:11:37;;;;;;;5.40;2.08;;;18.10;42.90;;;;;;5087229;28;20041;-76
2022/04/18 09:14:11;;;;;;;2.00;1.80;;;18.60;42.60;;;;;;5069898;28;20041;-76
2022/04/18 09:16:39;;;;;;;2.25;2.03;;;17.50;41.30;;;;;;5065171;28;20045;-78
2022/04/18 09:19:12;;;;;;;2.53;2.30;;;17.10;41.90;;;;;;5068163;28;20375;-78
2022/04/18 09:21:59;;;;;;;2.17;1.85;;;18.20;39.40;;;;;;5069587;28;20044;-77
2022/04/18 09:24:35;;;;;;;3.40;2.22;;;18.60;39.40;;;;;;5083834;28;20037;-78
2022/04/18 09:27:24;;;;;;;2.42;1.95;;;18.60;38.50;;;;;;5090261;28;20434;-78
2022/04/18 09:30:08;;;;;;;3.70;1.85;;;18.40;39.10;;;;;;5085161;28;20496;-80
2022/04/18 09:32:41;;;;;;;3.80;1.60;;;19.10;38.90;;;;;;5073125;28;20040;-77
2022/04/18 09:35:26;;;;;;;3.25;2.17;;;19.50;38.20;;;;;;5086116;28;20047;-80
2022/04/18 09:38:00;;;;;;;3.28;2.00;;;19.60;37.80;;;;;;5073248;28;20048;-84
2022/04/18 09:40:50;;;;;;;3.78;1.70;;;20.30;37.70;;;;;;5076305;28;20417;-77
2022/04/18 09:43:22;;;;;;;4.60;2.13;;;19.40;37.90;;;;;;5072659;28;20047;-78
2022/04/18 09:45:50;;;;;;;2.30;1.77;;;19.10;38.10;;;;;;5072980;28;20064;-77
2022/04/18 09:48:21;;;;;;;2.28;1.70;;;18.90;38.60;;;;;;5060482;28;20473;-77
2022/04/18 09:51:01;;;;;;;4.63;2.20;;;19.40;38.00;;;;;;5069774;28;20367;-77
2022/04/18 09:53:44;;;;;;;1.88;1.48;;;18.90;38.10;;;;;;5064952;28;20085;-77
2022/04/18 09:56:14;;;;;;;4.25;1.98;;;18.90;37.90;;;;;;5068983;28;20033;-76
2022/04/18 09:58:41;;;;;;;1.83;1.60;;;18.00;38.90;;;;;;5068381;28;20051;-77
2022/04/18 10:01:08;;;;;;;3.38;1.75;;;18.10;38.90;;;;;;5073328;28;20029;-77
2022/04/18 10:03:36;;;;;;;3.35;1.77;;;17.60;39.20;;;;;;5074255;28;20044;-78
2022/04/18 10:06:03;;;;;;;4.32;2.65;;;18.00;39.90;;;;;;5071220;28;20492;-79
2022/04/18 10:08:29;;;;;;;1.85;1.45;;;18.40;39.90;;;;;;5069316;28;20489;-78
2022/04/18 10:10:57;;;;;;;3.45;1.85;;;18.50;39.10;;;;;;5073825;28;20028;-78
2022/04/18 10:13:24;;;;;;;6.22;2.00;;;18.20;39.40;;;;;;5086266;28;20408;-79
2022/04/18 10:15:54;;;;;;;2.38;1.40;;;17.20;40.10;;;;;;5073663;28;20056;-79
2022/04/18 10:18:21;;;;;;;2.88;1.75;;;16.80;40.30;;;;;;5072830;28;20060;-78
2022/04/18 10:21:28;;;;;;;2.15;1.70;;;16.40;40.70;;;;;;5071112;28;20326;-79
2022/04/18 10:24:09;;;;;;;1.75;1.20;;;16.40;40.60;;;;;;5069097;28;20358;-78
2022/04/18 10:26:41;;;;;;;4.15;1.40;;;16.40;41.10;;;;;;5074688;28;20025;-78
2022/04/18 10:29:11;;;;;;;1.83;1.17;;;16.20;41.20;;;;;;5082187;28;20040;-77
2022/04/18 10:31:40;;;;;;;1.70;1.35;;;16.80;40.50;;;;;;5072256;28;20043;-80
2022/04/18 10:34:08;;;;;;;2.70;1.17;;;16.40;40.70;;;;;;5072139;28;20032;-80
2022/04/18 10:36:34;;;;;;;3.28;1.40;;;16.40;40.50;;;;;;5071786;28;20362;-78
2022/04/18 10:39:05;;;;;;;3.92;1.70;;;16.10;40.80;;;;;;5069604;28;20597;-77
2022/04/18 10:41:43;;;;;;;1.90;1.45;;;16.60;41.90;;;;;;5069892;28;20035;-77
2022/04/18 10:44:17;;;;;;;1.67;1.20;;;17.10;40.90;;;;;;5073037;28;20420;-78
2022/04/18 10:47:06;;;;;;;4.50;1.42;;;16.90;40.10;;;;;;5071546;28;20036;-78
2022/04/18 10:49:32;;;;;;;6.65;1.65;;;16.50;41.50;;;;;;5072473;28;20044;-79
2022/04/18 10:52:08;;;;;;;2.42;1.95;;;17.00;42.20;;;;;;5072998;28;20029;-79
2022/04/18 10:54:35;;;;;;;1.70;1.20;;;17.20;40.50;;;;;;5073192;28;20041;-79
2022/04/18 10:57:12;;;;;;;1.85;1.05;;;16.60;40.40;;;;;;5071415;28;20037;-79
2022/04/18 10:59:42;;;;;;;1.35;1.05;;;16.80;40.70;;;;;;5071923;28;20048;-79
2022/04/18 11:02:30;;;;;;;2.60;1.20;;;16.40;40.80;;;;;;5073607;28;20035;-79
2022/04/18 11:04:56;;;;;;;3.42;1.50;;;16.30;40.70;;;;;;5065716;28;20024;-79
2022/04/18 11:07:40;;;;;;;2.28;1.58;;;16.50;40.90;;;;;;5071592;28;20029;-79
2022/04/18 11:10:20;;;;;;;5.03;1.30;;;16.30;40.50;;;;;;5066985;28;20067;-79
2022/04/18 11:12:47;;;;;;;2.33;1.02;;;16.60;41.10;;;;;;5072023;28;20036;-79
2022/04/18 11:15:13;;;;;;;2.80;1.17;;;16.90;41.30;;;;;;5072753;28;20059;-80
2022/04/18 11:17:41;;;;;;;1.35;1.08;;;17.00;40.00;;;;;;5085293;28;20043;-79
2022/04/18 11:20:31;;;;;;;2.72;1.52;;;17.00;41.80;;;;;;5081980;28;20036;-79
2022/04/18 11:23:18;;;;;;;1.90;1.02;;;17.00;40.80;;;;;;5082678;28;20044;-78
2022/04/18 11:25:54;;;;;;;1.00;0.80;;;16.70;41.00;;;;;;5085322;28;20036;-79
2022/04/18 11:28:21;;;;;;;2.17;0.90;;;17.00;41.20;;;;;;5065854;28;20037;-78
2022/04/18 11:30:47;;;;;;;1.65;1.30;;;17.30;41.20;;;;;;5078836;28;20044;-79
2022/04/18 11:33:14;;;;;;;2.55;1.23;;;17.50;41.00;;;;;;5103131;28;20049;-79
2022/04/18 11:35:40;;;;;;;5.72;1.25;;;17.60;41.30;;;;;;5077491;28;20568;-78
2022/04/18 11:38:08;;;;;;;2.10;1.48;;;17.20;40.80;;;;;;5068920;28;20040;-78
2022/04/18 11:40:39;;;;;;;5.07;1.55;;;17.40;40.90;;;;;;5072542;28;20036;-79
2022/04/18 11:43:15;;;;;;;2.70;1.20;;;17.60;40.80;;;;;;5077963;28;20032;-79
2022/04/18 11:45:42;;;;;;;2.35;1.38;;;17.80;40.20;;;;;;5080859;28;20040;-79
2022/04/18 11:48:12;;;;;;;2.10;1.20;;;17.90;40.30;;;;;;5071434;28;20029;-79
2022/04/18 11:50:41;;;;;;;3.70;1.10;;;17.50;39.90;;;;;;5085915;28;20037;-79
2022/04/18 11:53:09;;;;;;;2.30;1.47;;;17.80;41.20;;;;;;5076291;28;20028;-79
2022/04/18 11:55:49;;;;;;;6.03;2.75;;;17.90;41.00;;;;;;5071561;28;20450;-79
2022/04/18 11:58:21;;;;;;;2.90;2.28;;;17.80;40.90;;;;;;5077038;28;20460;-79
2022/04/18 12:09:09;;;;;;;3.53;2.20;;;17.80;40.40;;;;;;5087965;28;20044;-79
2022/04/18 12:11:36;;;;;;;1.52;0.98;;;17.70;41.10;;;;;;5070494;28;20489;-79
2022/04/18 12:14:03;;;;;;;1.25;0.85;;;18.00;40.70;;;;;;5072698;28;20033;-79
2022/04/18 12:16:34;;;;;;;2.22;1.20;;;17.50;40.00;;;;;;5069833;28;20390;-79
2022/04/18 12:19:00;;;;;;;3.80;1.50;;;17.90;41.00;;;;;;5069626;28;20111;-79
2022/04/18 12:21:27;;;;;;;3.30;0.80;;;17.80;40.10;;;;;;5071945;28;20029;-79
2022/04/18 12:23:58;;;;;;;1.92;1.10;;;18.10;40.10;;;;;;5067689;28;20037;-79
2022/04/18 12:26:26;;;;;;;1.55;1.00;;;18.00;39.80;;;;;;5073297;28;20032;-79
2022/04/18 12:29:10;;;;;;;2.33;1.20;;;18.20;40.50;;;;;;5070738;28;20036;-79
2022/04/18 12:31:40;;;;;;;2.03;1.00;;;18.70;39.70;;;;;;5071739;28;20037;-79
2022/04/18 12:34:06;;;;;;;1.10;0.90;;;19.10;39.20;;;;;;5069331;28;20028;-79
2022/04/18 12:36:36;;;;;;;0.73;0.63;;;19.00;39.90;;;;;;5070390;28;20040;-80
2022/04/18 12:39:05;;;;;;;1.45;0.60;;;18.60;38.30;;;;;;5070526;28;20400;-77
2022/04/18 12:41:38;;;;;;;2.50;0.80;;;18.00;38.80;;;;;;5071333;28;20385;-79
2022/04/18 12:44:11;;;;;;;2.08;0.82;;;18.00;39.10;;;;;;5070724;28;20033;-80
2022/04/18 12:46:38;;;;;;;1.50;0.90;;;17.80;39.10;;;;;;5066569;28;20033;-79
2022/04/18 12:49:06;;;;;;;2.22;0.82;;;17.90;39.30;;;;;;5068554;28;20047;-81
2022/04/18 12:51:50;;;;;;;1.13;0.88;;;17.90;39.10;;;;;;5064780;28;20085;-79
2022/04/18 12:54:29;;;;;;;4.00;0.70;;;17.90;39.70;;;;;;5072030;28;20032;-80
2022/04/18 12:56:55;;;;;;;1.60;1.13;;;18.30;39.70;;;;;;5064979;28;20024;-79
2022/04/18 12:59:28;;;;;;;1.70;0.75;;;18.90;40.80;;;;;;5073980;28;20037;-80
2022/04/18 13:02:08;;;;;;;1.88;0.80;;;19.20;39.50;;;;;;5075826;28;20029;-81
2022/04/18 13:04:35;;;;;;;1.58;0.75;;;19.00;38.60;;;;;;5074863;28;20035;-80
2022/04/18 13:07:07;;;;;;;2.00;0.80;;;18.80;39.00;;;;;;5080432;28;20033;-80
2022/04/18 13:09:34;;;;;;;1.40;1.00;;;18.80;38.60;;;;;;5076180;28;20036;-80
2022/04/18 13:12:06;;;;;;;1.40;1.00;;;18.60;38.60;;;;;;5072611;28;20461;-80
2022/04/18 13:14:34;;;;;;;1.55;0.77;;;18.50;38.60;;;;;;5072532;28;20445;-79
2022/04/18 13:17:08;;;;;;;1.25;1.05;;;18.50;39.00;;;;;;5072574;28;20052;-81
2022/04/18 13:19:36;;;;;;;2.67;1.58;;;18.90;38.90;;;;;;5071281;28;20040;-80
2022/04/18 13:22:03;;;;;;;1.05;0.68;;;18.80;38.70;;;;;;5072735;28;20339;-80
2022/04/18 13:24:29;;;;;;;1.83;0.80;;;18.70;38.60;;;;;;5075059;28;20031;-80
2022/04/18 13:26:56;;;;;;;2.97;0.80;;;18.60;39.10;;;;;;5073245;28;20035;-80
2022/04/18 13:29:22;;;;;;;1.92;1.23;;;18.60;38.70;;;;;;5079354;28;20371;-81
2022/04/18 13:31:48;;;;;;;1.10;0.82;;;18.60;38.90;;;;;;5073964;28;20028;-80
2022/04/18 13:34:14;;;;;;;2.20;0.85;;;18.60;38.40;;;;;;5074371;28;20036;-79
2022/04/18 13:36:41;;;;;;;0.63;0.60;;;18.50;38.30;;;;;;5073331;28;20032;-80
2022/04/18 13:39:09;;;;;;;0.98;0.75;;;18.30;38.40;;;;;;5072874;28;20036;-80
2022/04/18 13:41:37;;;;;;;1.23;0.70;;;18.40;38.20;;;;;;5074462;28;20035;-80